Time;durP1;ratioP1;P1;durP2;ratioP2;P2;SDS_P1;SDS_P2;PMS_P1;PMS_P2;Temp;Humidity;BMP_temperature;BMP_pressure;BME280_temperature;BME280_humidity;BME280_pressure;Samples;Min_cycle;Max_cycle;Signal;HPM_P1;HPM_P2
2021/09/03 00:01:08;;;;;;;38.07;10.73;;;;;;;11.79;100.00;137191.72;5001817;28;20158;-67
2021/09/03 00:03:34;;;;;;;33.83;9.87;;;;;;;11.81;100.00;138214.47;5001056;28;20356;-67
2021/09/03 00:05:59;;;;;;;36.50;10.63;;;;;;;11.76;100.00;137524.69;5020260;28;20111;-67
2021/09/03 00:08:26;;;;;;;33.87;10.57;;;;;;;11.62;100.00;136137.69;5021472;28;20021;-67
2021/09/03 00:10:52;;;;;;;30.03;9.17;;;;;;;11.59;100.00;136130.63;5021386;28;20591;-67
2021/09/03 00:13:17;;;;;;;29.70;9.73;;;;;;;11.55;100.00;136121.25;5021542;28;20021;-67
2021/09/03 00:15:43;;;;;;;38.80;9.73;;;;;;;11.42;100.00;136090.75;5021320;28;20213;-67
2021/09/03 00:18:09;;;;;;;32.33;9.53;;;;;;;11.46;100.00;136438.72;5021404;28;20033;-67
2021/09/03 00:20:35;;;;;;;33.97;10.57;;;;;;;11.36;100.00;137092.34;5021073;28;20025;-67
2021/09/03 00:23:00;;;;;;;31.13;10.10;;;;;;;11.41;100.00;137105.41;5021658;28;20308;-67
2021/09/03 00:25:26;;;;;;;40.10;9.87;;;;;;;11.41;100.00;137782.75;5021271;28;20501;-67
2021/09/03 00:27:52;;;;;;;33.60;9.83;;;;;;;11.38;100.00;137435.72;5021249;28;20632;-67
2021/09/03 00:30:17;;;;;;;38.50;10.10;;;;;;;11.36;100.00;137432.19;5020948;28;20611;-67
2021/09/03 00:32:43;;;;;;;40.80;10.23;;;;;;;11.34;100.00;138103.63;5021100;28;20044;-67
2021/09/03 00:35:09;;;;;;;32.40;9.83;;;;;;;11.36;100.00;138787.06;5021284;28;20270;-67
2021/09/03 00:37:35;;;;;;;38.17;10.23;;;;;;;11.41;100.00;139814.47;5021132;28;20039;-67
2021/09/03 00:40:01;;;;;;;36.77;8.73;;;;;;;11.25;100.00;138082.16;5020889;28;20025;-67
2021/09/03 00:42:26;;;;;;;37.80;9.97;;;;;;;11.22;100.00;137060.44;5020956;28;20534;-67
2021/09/03 00:44:52;;;;;;;37.43;9.93;;;;;;;11.17;100.00;136710.13;5020604;28;20201;-67
2021/09/03 00:47:18;;;;;;;37.10;9.60;;;;;;;11.11;100.00;136358.72;5021089;28;20247;-67
2021/09/03 00:49:43;;;;;;;32.00;10.30;;;;;;;11.05;100.00;136005.06;5020797;28;20045;-67
2021/09/03 00:52:10;;;;;;;35.67;10.30;;;;;;;11.03;100.00;136338.75;5021086;28;20246;-67
2021/09/03 00:54:36;;;;;;;38.13;10.03;;;;;;;11.05;100.00;137021.44;5020500;28;20026;-67
2021/09/03 00:57:02;;;;;;;36.13;9.70;;;;;;;11.04;100.00;138033.38;5021016;28;20032;-67
2021/09/03 00:59:28;;;;;;;40.80;10.17;;;;;;;10.98;100.00;138358.75;5020746;28;20025;-67
2021/09/03 01:01:54;;;;;;;35.60;10.13;;;;;;;10.86;100.00;137653.25;5020013;28;20591;-66
2021/09/03 01:04:19;;;;;;;39.70;10.70;;;;;;;10.89;100.00;137659.19;5019435;28;20073;-67
2021/09/03 01:06:45;;;;;;;34.97;10.60;;;;;;;10.90;100.00;138339.66;5020217;28;20274;-66
2021/09/03 01:09:10;;;;;;;32.53;9.97;;;;;;;10.89;100.00;138674.56;5019862;28;20052;-67
2021/09/03 01:11:36;;;;;;;33.40;8.80;;;;;;;10.84;100.00;137986.91;5020433;28;20029;-67
2021/09/03 01:14:02;;;;;;;37.57;9.77;;;;;;;10.82;100.00;136968.25;5019678;28;20120;-67
2021/09/03 01:16:28;;;;;;;34.47;8.87;;;;;;;10.81;100.00;136627.59;5020043;28;20022;-67
2021/09/03 01:18:53;;;;;;;39.43;10.53;;;;;;;10.86;100.00;136299.91;5019328;28;20017;-67
2021/09/03 01:21:19;;;;;;;38.17;10.00;;;;;;;10.84;100.00;136295.22;5019861;28;20113;-67
2021/09/03 01:23:45;;;;;;;34.10;10.30;;;;;;;10.84;100.00;137648.50;5020063;28;20075;-67
2021/09/03 01:26:11;;;;;;;36.00;9.40;;;;;;;10.79;100.00;137637.84;5019784;28;20029;-67
2021/09/03 01:28:38;;;;;;;32.23;9.23;;;;;;;10.77;100.00;137294.72;5019855;28;20539;-67
2021/09/03 01:31:04;;;;;;;34.40;9.97;;;;;;;10.74;100.00;137287.63;5019623;28;20481;-67
2021/09/03 01:33:29;;;;;;;40.53;9.93;;;;;;;10.81;100.00;137641.41;5019843;28;20494;-67
2021/09/03 01:35:55;;;;;;;37.60;10.10;;;;;;;10.79;100.00;137637.84;5019376;28;20037;-67
2021/09/03 01:38:22;;;;;;;39.93;10.40;;;;;;;10.81;100.00;138318.19;5019844;28;20044;-67
2021/09/03 01:40:49;;;;;;;40.77;10.13;;;;;;;10.73;100.00;138299.09;5019451;28;20360;-67
2021/09/03 01:43:15;;;;;;;41.27;10.83;;;;;;;10.70;100.00;138291.94;5019575;28;20022;-67
2021/09/03 01:45:41;;;;;;;38.70;10.77;;;;;;;10.72;100.00;138296.72;5019504;28;20116;-67
2021/09/03 01:48:06;;;;;;;42.13;11.27;;;;;;;10.79;100.00;138990.34;5019577;28;20486;-67
2021/09/03 01:50:35;;;;;;;44.43;10.53;;;;;;;10.76;100.00;138984.31;5019145;28;20671;-67
2021/09/03 01:53:04;;;;;;;56.90;11.20;;;;;;;10.77;100.00;138986.72;5019467;28;20659;-67
2021/09/03 01:55:29;;;;;;;45.73;10.47;;;;;;;10.78;100.00;139327.66;5019282;28;20464;-67
2021/09/03 01:57:55;;;;;;;41.77;10.90;;;;;;;10.66;100.00;138620.72;5019419;28;20049;-67
2021/09/03 02:00:21;;;;;;;42.30;9.57;;;;;;;10.63;100.00;138276.41;5018966;28;20286;-66
2021/09/03 02:02:46;;;;;;;42.67;10.60;;;;;;;10.53;100.00;137915.47;5019060;28;20013;-67
2021/09/03 02:05:12;;;;;;;45.53;10.10;;;;;;;10.54;100.00;137917.88;5018768;28;20103;-67
2021/09/03 02:07:37;;;;;;;53.13;11.57;;;;;;;10.65;100.00;138280.00;5019191;28;20181;-67
2021/09/03 02:10:04;;;;;;;45.87;11.27;;;;;;;10.65;100.00;138957.94;5019009;28;20525;-67
2021/09/03 02:12:30;;;;;;;52.20;12.53;;;;;;;10.71;100.00;138971.16;5019034;28;20041;-67
2021/09/03 02:14:55;;;;;;;46.47;11.07;;;;;;;10.61;100.00;139624.00;5019164;28;20040;-67
2021/09/03 02:17:21;;;;;;;39.70;10.70;;;;;;;10.46;100.00;138913.59;5019291;28;20022;-67
2021/09/03 02:19:47;;;;;;;37.40;10.00;;;;;;;10.37;100.00;137201.16;5018838;28;20039;-67
2021/09/03 02:22:12;;;;;;;41.50;10.13;;;;;;;10.34;100.00;136516.78;5019272;28;20366;-67
2021/09/03 02:24:38;;;;;;;44.27;10.80;;;;;;;10.34;100.00;137192.88;5019105;28;20044;-67
2021/09/03 02:27:04;;;;;;;38.97;9.83;;;;;;;10.29;100.00;137520.25;5019355;28;20100;-67
2021/09/03 02:29:29;;;;;;;43.77;9.90;;;;;;;10.34;100.00;138208.41;5019132;28;20084;-66
2021/09/03 02:31:55;;;;;;;40.20;9.83;;;;;;;10.37;100.00;138890.81;5019162;28;20382;-66
2021/09/03 02:34:22;;;;;;;41.87;10.40;;;;;;;10.36;100.00;139227.88;5018911;28;20040;-66
2021/09/03 02:36:48;;;;;;;53.80;11.17;;;;;;;10.35;100.00;138887.22;5019056;28;20060;-67
2021/09/03 02:39:13;;;;;;;54.60;11.90;;;;;;;10.34;100.00;138883.63;5018908;28;20049;-67
2021/09/03 02:41:39;;;;;;;47.73;11.53;;;;;;;10.38;100.00;138893.19;5019244;28;20033;-67
2021/09/03 02:44:04;;;;;;;53.53;11.00;;;;;;;10.47;100.00;138916.00;5018890;28;20105;-67
2021/09/03 02:46:30;;;;;;;48.60;10.37;;;;;;;10.52;100.00;139943.13;5019027;28;20083;-67
2021/09/03 02:48:55;;;;;;;55.60;12.50;;;;;;;10.52;100.00;139604.72;5018819;28;20079;-67
2021/09/03 02:51:21;;;;;;;47.83;11.47;;;;;;;10.49;100.00;139596.28;5019826;28;20226;-67
2021/09/03 02:53:47;;;;;;;47.37;11.27;;;;;;;10.41;100.00;138901.59;5018806;28;20610;-67
2021/09/03 02:56:12;;;;;;;47.97;10.63;;;;;;;10.38;100.00;138216.75;5019147;28;20120;-67
2021/09/03 02:58:38;;;;;;;41.23;10.33;;;;;;;10.36;100.00;138213.19;5019439;28;20056;-68
2021/09/03 03:01:03;;;;;;;54.10;11.70;;;;;;;10.31;100.00;138200.09;5019842;28;20040;-69
2021/09/03 03:03:29;;;;;;;47.83;10.93;;;;;;;10.30;100.00;138198.91;5019650;28;20036;-69
2021/09/03 03:05:57;;;;;;;42.97;10.80;;;;;;;10.31;100.00;138876.44;5019609;28;20156;-69
2021/09/03 03:08:22;;;;;;;44.13;10.57;;;;;;;10.33;100.00;139558.94;5019694;28;20182;-69
2021/09/03 03:10:48;;;;;;;40.93;9.27;;;;;;;10.22;100.00;139533.66;5019374;28;20221;-69
2021/09/03 03:13:21;;;;;;;42.00;10.33;;;;;;;10.16;100.00;138841.59;5019295;28;20493;-69
2021/09/03 03:15:48;;;;;;;51.43;11.57;;;;;;;10.21;100.00;139531.25;5019464;28;20234;-69
2021/09/03 03:18:13;;;;;;;46.67;10.60;;;;;;;10.24;100.00;140213.81;5021071;28;20389;-69
2021/09/03 03:20:39;;;;;;;53.23;11.70;;;;;;;10.19;100.00;140201.69;5022685;28;20025;-69
2021/09/03 03:23:04;;;;;;;52.90;11.20;;;;;;;10.14;100.00;139852.53;5023256;28;20056;-69
2021/09/03 03:25:30;;;;;;;46.70;10.77;;;;;;;10.14;100.00;139851.31;5022175;28;20112;-69
2021/09/03 03:27:55;;;;;;;41.60;10.63;;;;;;;10.08;100.00;139498.69;5022538;28;20160;-69
2021/09/03 03:30:21;;;;;;;43.90;10.27;;;;;;;10.01;100.00;138806.84;5022246;28;20037;-69
2021/09/03 03:32:46;;;;;;;51.33;11.13;;;;;;;10.07;100.00;138821.25;5022375;28;20026;-69
2021/09/03 03:35:12;;;;;;;52.00;10.77;;;;;;;10.17;100.00;139182.16;5022383;28;20149;-69
2021/09/03 03:37:37;;;;;;;46.27;10.70;;;;;;;10.14;100.00;138836.81;5022598;28;20485;-69
2021/09/03 03:40:04;;;;;;;45.40;10.87;;;;;;;10.10;100.00;138828.44;5022091;28;20025;-69
2021/09/03 03:42:29;;;;;;;45.43;10.57;;;;;;;10.09;100.00;138486.78;5022379;28;20285;-69
2021/09/03 03:44:55;;;;;;;43.40;9.80;;;;;;;10.05;100.00;138815.22;5022063;28;20280;-69
2021/09/03 03:47:20;;;;;;;43.87;10.03;;;;;;;10.07;100.00;138820.06;5022381;28;20021;-69
2021/09/03 03:49:46;;;;;;;40.97;9.83;;;;;;;9.99;100.00;138803.28;5022220;28;20521;-69
2021/09/03 03:52:11;;;;;;;43.90;11.20;;;;;;;9.92;100.00;137433.56;5022119;28;20036;-69
2021/09/03 03:54:37;;;;;;;45.70;10.63;;;;;;;9.91;100.00;137432.38;5022196;28;20207;-69
2021/09/03 03:57:03;;;;;;;38.07;9.13;;;;;;;9.93;100.00;138112.97;5022246;28;20167;-69
2021/09/03 03:59:30;;;;;;;41.83;9.70;;;;;;;9.88;100.00;138099.81;5021723;28;20032;-69
2021/09/03 04:01:55;;;;;;;38.77;10.60;;;;;;;9.80;100.00;137742.88;5021896;28;20257;-69
2021/09/03 04:04:21;;;;;;;41.53;11.20;;;;;;;9.81;100.00;138083.09;5021461;28;20223;-69
2021/09/03 04:06:47;;;;;;;37.77;9.37;;;;;;;9.76;100.00;137734.56;5022178;28;20112;-69
2021/09/03 04:09:12;;;;;;;36.37;9.20;;;;;;;9.74;100.00;137729.81;5021861;28;20489;-69
2021/09/03 04:11:41;;;;;;;40.77;9.93;;;;;;;9.79;100.00;139093.25;5021998;28;20535;-69
2021/09/03 04:14:06;;;;;;;40.97;9.97;;;;;;;9.81;100.00;139436.06;5021467;28;20021;-69
2021/09/03 04:16:32;;;;;;;47.83;10.27;;;;;;;9.84;100.00;139781.31;5021530;28;20036;-69
2021/09/03 04:18:57;;;;;;;42.60;10.83;;;;;;;9.80;100.00;139095.66;5021539;28;20079;-69
2021/09/03 04:21:23;;;;;;;33.00;8.60;;;;;;;9.73;100.00;137388.50;5021907;28;20398;-69
2021/09/03 04:23:48;;;;;;;40.13;10.63;;;;;;;9.64;100.00;136355.34;5021500;28;20028;-69
2021/09/03 04:26:14;;;;;;;39.97;9.83;;;;;;;9.60;100.00;136009.53;5021893;28;20498;-69
2021/09/03 04:28:39;;;;;;;32.93;9.83;;;;;;;9.63;100.00;136352.97;5021748;28;20027;-68
2021/09/03 04:31:05;;;;;;;44.97;11.83;;;;;;;9.74;100.00;124580.22;5021556;28;20426;-69
2021/09/03 04:33:30;;;;;;;34.13;10.70;;;;;;;9.75;100.00;125928.81;5021559;28;20152;-68
2021/09/03 04:35:56;;;;;;;41.97;9.50;;;;;;;9.65;100.00;125570.44;5021242;28;20040;-69
2021/09/03 04:38:22;;;;;;;44.73;9.43;;;;;;;9.69;100.00;125579.13;5021515;28;20032;-68
2021/09/03 04:40:47;;;;;;;30.30;8.87;;;;;;;9.64;100.00;125568.28;5021415;28;20158;-68
2021/09/03 04:43:13;;;;;;;31.27;8.63;;;;;;;9.65;100.00;125570.44;5021275;28;20099;-69
2021/09/03 04:45:38;;;;;;;30.93;9.83;;;;;;;9.65;100.00;125907.06;5021262;28;20206;-69
2021/09/03 04:48:05;;;;;;;29.53;9.23;;;;;;;9.74;100.00;125925.56;5021355;28;20079;-68
2021/09/03 04:50:30;;;;;;;22.90;7.57;;;;;;;9.68;100.00;125576.94;5021302;28;20021;-69
2021/09/03 04:52:56;;;;;;;31.60;9.30;;;;;;;9.71;100.00;124910.31;5021172;28;20282;-68
2021/09/03 04:55:21;;;;;;;24.50;7.20;;;;;;;9.72;100.00;124911.38;5020811;28;20033;-69
2021/09/03 04:57:47;;;;;;;19.90;7.23;;;;;;;9.59;100.00;122866.06;5021148;28;20029;-68
2021/09/03 05:00:16;;;;;;;21.00;7.50;;;;;;;9.64;100.00;122877.72;5021011;28;20175;-69
2021/09/03 05:02:42;;;;;;;18.77;6.67;;;;;;;9.57;100.00;121854.16;5021338;28;20021;-68
2021/09/03 05:05:08;;;;;;;17.07;5.60;;;;;;;9.53;100.00;120836.28;5020705;28;20760;-68
2021/09/03 05:07:34;;;;;;;19.20;5.93;;;;;;;9.50;100.00;119822.03;5021155;28;20034;-68
2021/09/03 05:10:00;;;;;;;19.03;5.87;;;;;;;9.52;100.00;120498.16;5020734;28;20061;-69
2021/09/03 05:12:25;;;;;;;18.37;5.63;;;;;;;9.58;100.00;121856.25;5021202;28;20017;-69
2021/09/03 05:14:51;;;;;;;21.97;7.23;;;;;;;9.80;100.00;123920.03;5021123;28;20405;-69
2021/09/03 05:17:16;;;;;;;19.10;7.17;;;;;;;9.98;100.00;125642.09;5020841;28;20127;-69
2021/09/03 05:19:42;;;;;;;22.83;8.10;;;;;;;10.04;100.00;125317.22;5020923;28;20038;-69
2021/09/03 05:22:08;;;;;;;24.33;7.23;;;;;;;10.18;100.00;125683.38;5021300;28;20257;-69
2021/09/03 05:24:33;;;;;;;22.80;8.30;;;;;;;10.25;100.00;125699.69;5020817;28;20025;-69
2021/09/03 05:26:59;;;;;;;22.67;7.47;;;;;;;10.39;100.00;125729.00;5020807;28;20059;-69
2021/09/03 05:29:24;;;;;;;22.10;8.00;;;;;;;10.40;100.00;123709.66;5020149;28;20022;-69
2021/09/03 05:31:50;;;;;;;19.90;6.50;;;;;;;10.65;100.00;124771.97;5020930;28;20029;-69
2021/09/03 05:34:18;;;;;;;22.37;8.73;;;;;;;10.74;100.00;124117.22;5020106;28;20168;-69
2021/09/03 05:36:43;;;;;;;16.87;6.80;;;;;;;10.86;100.00;124142.97;5020353;28;20070;-69
2021/09/03 05:39:09;;;;;;;21.73;8.03;;;;;;;10.96;100.00;122814.91;5020646;28;20029;-69
2021/09/03 05:41:35;;;;;;;23.00;8.07;;;;;;;10.88;100.00;120440.81;5019896;28;20021;-69
2021/09/03 05:44:00;;;;;;;21.47;8.80;;;;;;;11.09;100.00;121495.34;5020367;28;20036;-69
2021/09/03 05:46:26;;;;;;;19.80;8.23;;;;;;;11.18;100.00;119490.53;5021008;28;20110;-69
2021/09/03 05:48:51;;;;;;;25.40;8.80;;;;;;;11.53;100.00;118551.78;5019964;28;20107;-69
2021/09/03 05:51:20;;;;;;;15.60;6.87;;;;;;;12.24;100.00;108925.72;5019857;28;20068;-69
2021/09/03 05:53:49;;;;;;;15.13;5.70;;;;;;;13.10;100.00;95635.09;5019247;28;20078;-68
2021/09/03 05:56:14;;;;;;;13.60;6.57;;;;;;;13.67;100.00;48356.06;5019684;28;20021;-68
2021/09/03 05:58:40;;;;;;;15.00;6.10;;;;;;;13.67;100.00;9817.03;5019498;28;20089;-68
2021/09/03 06:01:05;;;;;;;13.23;6.13;;;;;;;13.94;100.00;-12846.28;5019529;28;20036;-68
2021/09/03 06:03:31;;;;;;;13.67;6.37;;;;;;;14.91;100.00;-19554.19;5020261;28;20057;-69
2021/09/03 06:05:57;;;;;;;16.60;5.93;;;;;;;15.52;100.00;-19569.91;5019950;28;20033;-69
2021/09/03 06:08:22;;;;;;;10.87;5.30;;;;;;;15.05;100.00;-19557.88;5019571;28;20630;-69
2021/09/03 06:10:48;;;;;;;12.90;5.23;;;;;;;14.85;100.00;-19552.63;5019532;28;20301;-71
2021/09/03 06:13:13;;;;;;;11.50;5.17;;;;;;;15.88;100.00;-19579.06;5019393;28;20021;-69
2021/09/03 06:15:39;;;;;;;11.57;5.30;;;;;;;16.69;100.00;-19599.97;5019098;28;20057;-70
2021/09/03 06:18:04;;;;;;;13.03;5.27;;;;;;;17.33;100.00;-19616.28;5019209;28;20049;-70
2021/09/03 06:20:30;;;;;;;12.03;5.23;;;;;;;17.51;100.00;-19621.13;5018917;28;20237;-71
2021/09/03 06:22:56;;;;;;;10.60;5.87;;;;;;;17.91;100.00;-19631.31;5019146;28;20462;-71
2021/09/03 06:25:21;;;;;;;11.20;5.83;;;;;;;18.18;100.00;-19638.09;5018981;28;20033;-71
2021/09/03 06:27:47;;;;;;;15.77;5.97;;;;;;;18.79;100.00;-19653.72;5019069;28;20540;-71
2021/09/03 06:30:14;;;;;;;13.13;5.07;;;;;;;19.19;100.00;-19664.13;5019162;28;20510;-71
2021/09/03 06:32:40;;;;;;;10.88;5.18;;;;;;;18.58;100.00;-19648.50;5019171;28;20234;-71
2021/09/03 06:35:07;;;;;;;13.68;5.97;;;;;;;19.49;100.00;-19671.69;5018867;28;20026;-71
2021/09/03 06:37:33;;;;;;;11.48;5.43;;;;;;;19.94;100.00;-19683.28;5019016;28;20433;-71
2021/09/03 06:39:59;;;;;;;14.32;6.15;;;;;;;20.49;100.00;-19697.31;5018849;28;20218;-72
2021/09/03 06:42:26;;;;;;;16.10;5.47;;;;;;;20.43;100.00;-19695.88;5019131;28;20502;-72
2021/09/03 06:44:52;;;;;;;12.15;5.72;;;;;;;20.56;100.00;-19699.00;5018869;28;20112;-72
2021/09/03 06:47:17;;;;;;;12.43;6.30;;;;;;;20.16;100.00;-19688.88;5019104;28;20128;-72
2021/09/03 06:49:44;;;;;;;13.10;6.15;;;;;;;20.58;100.00;-19699.53;5018793;28;20079;-72
2021/09/03 06:52:11;;;;;;;11.70;5.85;;;;;;;20.63;100.00;-19700.81;5020171;28;20064;-72
2021/09/03 06:54:37;;;;;;;13.77;5.88;;;;;;;20.89;100.00;-19707.59;5023044;28;20116;-72
2021/09/03 06:57:03;;;;;;;15.10;6.00;;;;;;;20.88;100.00;-19707.19;5022880;28;20029;-73
2021/09/03 06:59:31;;;;;;;12.80;5.57;;;;;;;21.25;100.00;-19716.66;5022694;28;20301;-73
2021/09/03 07:01:57;;;;;;;12.65;5.68;;;;;;;21.56;100.00;-19724.59;5024578;28;20394;-73
2021/09/03 07:04:24;;;;;;;12.60;5.68;;;;;;;21.45;100.00;-19721.88;5023693;28;20061;-74
2021/09/03 07:06:50;;;;;;;13.50;6.05;;;;;;;21.35;100.00;-19719.41;5023379;28;20232;-73
2021/09/03 07:09:16;;;;;;;14.25;5.35;;;;;;;21.83;100.00;-19731.47;5022269;28;20598;-73
2021/09/03 07:11:42;;;;;;;14.65;5.07;;;;;;;22.22;100.00;-19741.47;5023275;28;20029;-73
2021/09/03 07:14:08;;;;;;;10.23;5.07;;;;;;;22.39;100.00;-19745.72;5024361;28;20018;-73
2021/09/03 07:16:33;;;;;;;11.45;4.72;;;;;;;21.31;100.00;-19718.38;5024351;28;20021;-72
2021/09/03 07:19:04;;;;;;;12.32;5.40;;;;;;;21.97;100.00;-19735.09;5023763;28;20036;-71
2021/09/03 07:21:31;;;;;;;10.63;4.32;;;;;;;21.70;100.00;-19728.09;5023339;28;20060;-71
2021/09/03 07:23:58;;;;;;;11.90;5.20;;;;;;;22.09;100.00;-19738.22;5023523;28;20052;-71
2021/09/03 07:26:24;;;;;;;9.13;4.57;;;;;;;22.07;100.00;-19737.56;5023242;28;20256;-71
2021/09/03 07:28:50;;;;;;;11.70;4.97;;;;;;;23.12;100.00;-19764.25;5022977;28;20093;-71
2021/09/03 07:31:15;;;;;;;10.75;4.40;;;;;;;23.16;100.00;-19765.44;5022707;28;20029;-71
2021/09/03 07:33:41;;;;;;;13.02;5.57;;;;;;;23.36;98.92;-19770.59;5023419;28;20081;-72
2021/09/03 07:36:06;;;;;;;12.63;4.50;;;;;;;24.00;94.25;-19786.66;5023559;28;20394;-75
2021/09/03 07:38:33;;;;;;;8.93;4.30;;;;;;;24.50;87.50;-19799.59;5026156;28;20033;-74
2021/09/03 07:40:59;;;;;;;9.88;4.25;;;;;;;23.62;85.12;-19777.09;5007352;28;20029;-75
2021/09/03 07:43:25;;;;;;;13.55;4.68;;;;;;;23.18;100.00;-19765.81;5024765;28;20029;-74
2021/09/03 07:45:50;;;;;;;10.23;4.50;;;;;;;23.62;99.04;-19777.09;5023699;28;20080;-75
2021/09/03 07:48:16;;;;;;;12.25;4.10;;;;;;;23.46;93.83;-19773.06;5024149;28;20036;-74
2021/09/03 07:50:41;;;;;;;10.73;3.88;;;;;;;23.66;90.46;-19778.13;5023382;28;20186;-75
2021/09/03 07:53:07;;;;;;;8.02;3.53;;;;;;;23.80;97.11;-19781.63;5023424;28;20029;-73
2021/09/03 07:55:34;;;;;;;10.35;3.75;;;;;;;23.94;89.37;-19785.25;5024339;28;20406;-73
2021/09/03 07:58:02;;;;;;;8.82;3.40;;;;;;;23.88;89.64;-19783.81;5023548;28;20025;-74
2021/09/03 08:00:28;;;;;;;9.07;3.72;;;;;;;24.06;84.94;-19788.22;5023353;28;20192;-74
2021/09/03 08:02:53;;;;;;;8.77;3.53;;;;;;;24.23;86.25;-19792.75;5023556;28;20132;-73
2021/09/03 08:05:19;;;;;;;9.45;3.65;;;;;;;24.49;88.57;-19799.22;5022846;28;20094;-74
2021/09/03 08:07:45;;;;;;;11.13;3.78;;;;;;;25.12;82.37;-19815.34;5022722;28;20056;-74
2021/09/03 08:10:13;;;;;;;11.10;3.78;;;;;;;25.36;77.00;-19821.28;5022684;28;20071;-74
2021/09/03 08:12:39;;;;;;;9.90;3.40;;;;;;;25.00;88.58;-19812.25;5023125;28;20080;-76
2021/09/03 08:15:05;;;;;;;9.32;3.63;;;;;;;25.85;76.27;-19833.69;5022887;28;20627;-75
2021/09/03 08:17:32;;;;;;;10.32;3.33;;;;;;;25.42;75.81;-19822.84;5024712;28;20211;-76
2021/09/03 08:19:58;;;;;;;10.20;3.65;;;;;;;25.62;78.87;-19828.00;5022398;28;20033;-75
2021/09/03 08:22:24;;;;;;;8.23;3.80;;;;;;;23.03;88.99;-19762.06;5023797;28;20359;-74
2021/09/03 08:24:49;;;;;;;8.27;3.35;;;;;;;21.84;100.00;-19731.72;5023387;28;20044;-73
2021/09/03 08:27:16;;;;;;;10.55;4.03;;;;;;;21.99;100.00;-19735.50;5024255;28;20063;-75
2021/09/03 08:29:43;;;;;;;10.02;4.25;;;;;;;24.07;91.64;-19788.59;5024807;28;20363;-75
2021/09/03 08:32:10;;;;;;;11.65;4.13;;;;;;;25.34;84.28;-19820.91;5024679;28;20099;-75
2021/09/03 08:34:39;;;;;;;9.30;3.90;;;;;;;25.92;71.51;-19835.50;5023044;28;20044;-76
2021/09/03 08:37:04;;;;;;;10.18;3.67;;;;;;;25.78;71.97;-19831.88;5023652;28;20113;-76
2021/09/03 08:39:30;;;;;;;8.90;3.60;;;;;;;26.23;72.18;-19843.47;5023189;28;20116;-75
2021/09/03 08:41:56;;;;;;;9.60;3.85;;;;;;;26.45;66.67;-19849.03;5023856;28;20033;-76
2021/09/03 08:44:22;;;;;;;10.38;3.72;;;;;;;23.27;95.54;-19768.16;5024921;28;20052;-73
2021/09/03 08:46:48;;;;;;;8.43;3.60;;;;;;;22.55;100.00;-19749.75;5022966;28;20017;-72
2021/09/03 08:49:14;;;;;;;11.70;4.38;;;;;;;22.18;100.00;-19740.56;5024553;28;20462;-72
2021/09/03 08:51:40;;;;;;;10.75;4.15;;;;;;;22.90;99.52;-19758.69;5022248;28;20018;-72
2021/09/03 08:54:06;;;;;;;10.80;4.43;;;;;;;24.69;88.98;-19804.38;5023442;28;20228;-73
2021/09/03 08:56:32;;;;;;;11.02;4.10;;;;;;;24.58;89.26;-19801.41;5023338;28;20041;-72
2021/09/03 08:58:58;;;;;;;11.23;4.15;;;;;;;22.48;100.00;-19748.06;5021396;28;20025;-71
2021/09/03 09:01:24;;;;;;;14.52;4.07;;;;;;;21.63;100.00;-19726.53;5022653;28;20036;-70
2021/09/03 09:03:51;;;;;;;9.38;4.28;;;;;;;21.98;100.00;-19735.34;5020825;28;20171;-69
2021/09/03 09:06:27;;;;;;;11.27;3.90;;;;;;;21.11;100.00;-19713.03;5020798;28;20025;-70
2021/09/03 09:09:08;;;;;;;10.27;4.05;;;;;;;21.96;100.00;-19734.84;5021316;28;20025;-71
2021/09/03 09:11:36;;;;;;;11.90;4.20;;;;;;;23.86;100.00;-19783.28;5024557;28;20413;-74
2021/09/03 09:14:05;;;;;;;7.55;3.75;;;;;;;24.22;87.22;-19792.34;5024196;28;20116;-75
2021/09/03 09:16:31;;;;;;;11.70;4.38;;;;;;;22.73;91.60;-19754.41;5022508;28;20140;-75
2021/09/03 09:19:00;;;;;;;7.72;3.70;;;;;;;21.19;100.00;-19715.09;5020632;28;20306;-73
2021/09/03 09:21:35;;;;;;;9.98;3.80;;;;;;;22.89;100.00;-19758.44;5021723;28;20699;-72
2021/09/03 09:24:21;;;;;;;10.02;4.03;;;;;;;22.77;100.00;-19755.59;5020677;28;20611;-72
2021/09/03 09:26:55;;;;;;;10.05;3.88;;;;;;;23.09;100.00;-19763.63;5020597;28;20120;-71
2021/09/03 09:29:24;;;;;;;12.80;3.72;;;;;;;22.94;100.00;-19759.75;5020328;28;20111;-70
2021/09/03 09:31:54;;;;;;;10.95;4.50;;;;;;;21.55;100.00;-19724.47;5019980;28;20275;-69
2021/09/03 09:34:28;;;;;;;11.25;4.30;;;;;;;21.37;100.00;-19719.78;5019590;28;20466;-71
2021/09/03 09:36:56;;;;;;;10.32;4.20;;;;;;;23.76;100.00;-19780.72;5021441;28;20068;-75
2021/09/03 09:39:24;;;;;;;12.38;3.90;;;;;;;23.18;100.00;-19765.94;5021396;28;20249;-73
2021/09/03 09:42:02;;;;;;;9.57;3.97;;;;;;;22.78;100.00;-19755.84;5020676;28;20063;-71
2021/09/03 09:44:35;;;;;;;13.55;4.88;;;;;;;21.43;100.00;-19721.34;5019793;28;20028;-71
2021/09/03 09:47:09;;;;;;;8.18;4.00;;;;;;;21.87;100.00;-19732.50;5018783;28;20041;-74
2021/09/03 09:49:36;;;;;;;11.52;4.13;;;;;;;23.47;100.00;-19773.19;5022341;28;20030;-76
2021/09/03 09:52:06;;;;;;;11.30;4.40;;;;;;;24.74;81.21;-19805.66;5022907;28;20029;-75
2021/09/03 09:54:34;;;;;;;9.13;3.75;;;;;;;23.08;93.63;-19763.38;5020927;28;20021;-73
2021/09/03 09:57:05;;;;;;;10.50;4.28;;;;;;;22.39;100.00;-19745.88;5019871;28;20160;-72
2021/09/03 09:59:33;;;;;;;10.50;4.15;;;;;;;22.43;100.00;-19746.78;5019471;28;20030;-72
2021/09/03 10:02:01;;;;;;;11.13;5.00;;;;;;;21.43;100.00;-19721.34;5019755;28;20022;-71
2021/09/03 10:04:30;;;;;;;10.98;4.43;;;;;;;21.12;100.00;-19713.44;5018779;28;20187;-70
2021/09/03 10:06:59;;;;;;;11.80;4.75;;;;;;;21.53;100.00;-19723.81;5019378;28;20121;-70
2021/09/03 10:09:27;;;;;;;12.55;4.78;;;;;;;21.35;100.00;-19719.28;5018935;28;20461;-70
2021/09/03 10:11:55;;;;;;;11.88;4.50;;;;;;;22.22;100.00;-19741.59;5019867;28;20056;-70
2021/09/03 10:14:30;;;;;;;10.73;4.40;;;;;;;25.38;85.12;-19821.81;5020022;28;20431;-71
2021/09/03 10:16:57;;;;;;;9.32;4.30;;;;;;;24.45;84.41;-19798.28;5019471;28;20103;-70
2021/09/03 10:19:33;;;;;;;9.68;4.22;;;;;;;22.78;96.88;-19755.84;5018860;28;20174;-70
2021/09/03 10:22:04;;;;;;;10.05;4.07;;;;;;;23.46;93.83;-19773.06;5019024;28;20110;-70
2021/09/03 10:24:30;;;;;;;12.25;4.60;;;;;;;23.44;94.47;-19772.56;5018722;28;20246;-69
2021/09/03 10:26:57;;;;;;;11.68;4.53;;;;;;;23.24;95.51;-19767.50;5019930;28;20509;-69
2021/09/03 10:29:43;;;;;;;9.07;3.95;;;;;;;23.39;87.15;-19771.25;5022946;28;20029;-69
2021/09/03 10:32:22;;;;;;;9.68;4.10;;;;;;;24.25;79.91;-19793.13;5023142;28;20110;-69
2021/09/03 10:34:55;;;;;;;10.25;4.45;;;;;;;23.76;93.27;-19780.59;5022665;28;20494;-69
2021/09/03 10:37:29;;;;;;;12.60;4.28;;;;;;;22.75;99.73;-19754.94;5022788;28;20029;-69
2021/09/03 10:40:20;;;;;;;11.25;4.57;;;;;;;22.08;100.00;-19737.97;5022799;28;20381;-69
2021/09/03 10:42:48;;;;;;;9.43;4.22;;;;;;;23.21;90.57;-19766.59;5022929;28;20087;-69
2021/09/03 10:45:36;;;;;;;9.27;3.90;;;;;;;23.98;86.05;-19786.41;5022616;28;20300;-69
2021/09/03 10:48:16;;;;;;;9.73;3.88;;;;;;;22.90;100.00;-19758.69;5022948;28;20060;-69
2021/09/03 10:51:08;;;;;;;8.85;4.00;;;;;;;21.87;100.00;-19732.63;5022348;28;20173;-69
2021/09/03 10:53:40;;;;;;;10.93;4.43;;;;;;;21.52;100.00;-19723.56;5020437;28;20036;-68
2021/09/03 10:56:19;;;;;;;10.18;4.38;;;;;;;21.12;100.00;-19713.28;5022754;28;20107;-69
2021/09/03 10:58:53;;;;;;;10.88;4.75;;;;;;;19.90;100.00;-19682.22;5022328;28;20025;-68
2021/09/03 11:01:30;;;;;;;9.93;4.55;;;;;;;19.27;100.00;-19666.09;5022646;28;20431;-68
2021/09/03 11:04:11;;;;;;;11.02;5.35;;;;;;;19.44;100.00;-19670.38;5022514;28;20213;-68
2021/09/03 11:06:57;;;;;;;12.43;4.68;;;;;;;19.85;100.00;-19681.06;5022444;28;20079;-68
2021/09/03 11:09:25;;;;;;;11.32;4.43;;;;;;;20.02;100.00;-19685.22;5021958;28;20268;-69